Flight Track Log - Related Links

Times and Time Zones

All times are in EST time to prevent confusion due to time zone crossing. See the N888FM flight status page for this flight to view local times or setup timezone preferences in your user account.

Time Position Orientation Groundspeed Altitude Reporting Facility
EST Latitude Longitude Course Direction KTS MPH feet Rate Location/Type
Sat 10:51:09 AM 35.1894 -80.9586 234° Southwest 156 180 3,000  Level Atlanta Center
Sat 10:52:04 AM 35.2156 -81.0033 306° West 215 247 4,000 1,409 Climbing Atlanta Center
Sat 10:53:04 AM 35.2722 -81.0242 343° North 218 251 5,700 1,623 Climbing Atlanta Center
Sat 10:54:06 AM 35.3189 -81.0506 335° Northwest 215 247 7,300 1,574 Climbing Atlanta Center
Sat 10:55:06 AM 35.3694 -81.0767 337° Northwest 210 242 8,900 1,350 Climbing Atlanta Center
Sat 10:56:06 AM 35.4283 -81.0925 348° North 204 235 10,000 1,050 Climbing Atlanta Center
Sat 10:57:06 AM 35.4872 -81.1106 346° North 214 246 11,000 1,000 Climbing Atlanta Center
Sat 10:58:06 AM 35.5503 -81.1314 345° North 219 252 12,000 1,000 Climbing Atlanta Center
Sat 10:59:06 AM 35.6172 -81.1419 353° North 230 265 13,000 1,050 Climbing Atlanta Center
Sat 11:00:06 AM 35.6997 -81.0981 23° Northeast 259 298 14,100 1,050 Climbing Atlanta Center
Sat 11:01:06 AM 35.7739 -81.0544 26° Northeast 273 314 15,100 1,000 Climbing Atlanta Center
Sat 11:02:06 AM 35.8478 -81.0133 24° Northeast 285 328 16,100 1,000 Climbing Atlanta Center
Sat 11:03:06 AM 35.9219 -80.9694 26° Northeast 290 334 17,100 1,000 Climbing Atlanta Center
Sat 11:04:06 AM 36.0000 -80.9253 25° Northeast 295 339 18,100 1,050 Climbing Atlanta Center
Sat 11:05:06 AM 36.0761 -80.8814 25° Northeast 295 339 19,200 1,050 Climbing Atlanta Center
Sat 11:06:06 AM 36.1500 -80.8400 24° Northeast 295 339 20,200 900 Climbing Atlanta Center
Sat 11:07:06 AM 36.2261 -80.7958 25° Northeast 295 339 21,000 800 Climbing Atlanta Center
Sat 11:08:06 AM 36.3019 -80.7514 25° Northeast 295 339 21,800 800 Climbing Atlanta Center
Sat 11:09:06 AM 36.3781 -80.7069 25° Northeast 300 345 22,600 600 Climbing Atlanta Center
Sat 11:10:06 AM 36.4581 -80.6597 25° Northeast 300 345 23,000 200 Climbing Atlanta Center
Sat 11:11:06 AM 36.5400 -80.6100 26° Northeast 312 359 23,000  Level Atlanta Center
Sat 11:12:06 AM 36.6242 -80.5622 24° Northeast 318 366 23,000  Level Atlanta Center
Sat 11:13:06 AM 36.7125 -80.5119 25° Northeast 324 373 23,000  Level Atlanta Center
Sat 11:14:06 AM 36.7986 -80.4614 25° Northeast 331 381 23,000  Level Atlanta Center
Sat 11:15:06 AM 36.8847 -80.4133 24° Northeast 331 381 23,000  Level Atlanta Center
Sat 11:16:06 AM 36.9708 -80.3628 25° Northeast 331 381 23,000  Level Atlanta Center
Sat 11:17:06 AM 37.0486 -80.3147 26° Northeast 331 381 23,000  Level Atlanta Center
Sat 11:19:27 AM 37.2608 -80.1911 25° Northeast 348 400 23,000  Level Washington Center
Sat 11:20:28 AM 37.3456 -80.1389 26° Northeast 348 400 23,000  Level Washington Center
Sat 11:21:31 AM 37.4303 -80.0883 25° Northeast 343 395 23,000  Level Washington Center
Sat 11:22:35 AM 37.5331 -80.0275 25° Northeast 345 397 23,000  Level Washington Center
Sat 11:23:36 AM 37.6186 -79.9767 25° Northeast 345 397 23,000  Level Washington Center
Sat 11:24:36 AM 37.7044 -79.9258 25° Northeast 345 397 23,000  Level Washington Center
Sat 11:25:41 AM 37.7906 -79.8739 25° Northeast 348 400 23,000  Level Washington Center
Sat 11:26:42 AM 37.8931 -79.8119 25° Northeast 347 399 23,000  Level Washington Center
Sat 11:27:43 AM 37.9783 -79.7600 26° Northeast 347 399 23,000  Level Washington Center
Sat 11:28:47 AM 38.0644 -79.7078 26° Northeast 347 399 23,000  Level Washington Center
Sat 11:29:47 AM 38.1678 -79.6461 25° Northeast 348 400 23,000  Level Washington Center
Sat 11:30:51 AM 38.2531 -79.5939 26° Northeast 348 400 23,000  Level Washington Center
Sat 11:31:51 AM 38.3394 -79.5417 25° Northeast 348 400 23,000  Level Washington Center
Sat 11:32:55 AM 38.4256 -79.4881 26° Northeast 348 400 23,000  Level Washington Center
Sat 11:33:56 AM 38.5294 -79.4253 25° Northeast 350 403 23,000  Level Washington Center
Sat 11:34:59 AM 38.6158 -79.3719 26° Northeast 351 404 23,000  Level Washington Center
Sat 11:36:01 AM 38.7033 -79.3161 26° Northeast 355 409 23,000  Level Washington Center
Sat 11:37:01 AM 38.7919 -79.2622 25° Northeast 355 409 23,000  Level Washington Center
Sat 11:38:05 AM 38.8808 -79.2058 26° Northeast 355 409 23,000  Level Washington Center
Sat 11:39:06 AM 38.9872 -79.1367 27° Northeast 358 412 23,000  Level Washington Center
Sat 11:40:08 AM 39.0575 -79.0392 47° Northeast 370 426 23,000  Level Washington Center
Sat 11:41:12 AM 39.1222 -78.9386 50° Northeast 367 422 23,000  Level Washington Center
Sat 11:42:13 AM 39.1900 -78.8344 50° Northeast 373 429 23,000  Level Washington Center
Sat 11:43:14 AM 39.2572 -78.7294 50° Northeast 375 432 23,000  Level Washington Center
Sat 11:44:18 AM 39.3247 -78.6258 50° Northeast 375 432 23,000  Level Washington Center
Sat 11:45:19 AM 39.4067 -78.5006 50° Northeast 376 433 23,000  Level Washington Center
Sat 11:46:20 AM 39.4739 -78.3953 50° Northeast 376 433 23,000  Level Washington Center
Sat 11:47:24 AM 39.5400 -78.2900 51° Northeast 376 433 23,000  Level Washington Center
Sat 11:48:25 AM 39.6072 -78.1842 50° Northeast 377 434 23,000  Level Washington Center
Sat 11:49:28 AM 39.6744 -78.0789 50° Northeast 377 434 23,000  Level Washington Center
Sat 11:50:28 AM 39.7397 -77.9736 51° Northeast 376 433 23,000  Level Washington Center
Sat 11:51:32 AM 39.8064 -77.8681 51° Northeast 376 433 23,000  Level Washington Center
Sat 11:52:33 AM 39.8856 -77.7406 51° Northeast 376 433 23,000 -393 Level Washington Center
Sat 11:53:34 AM 39.9533 -77.6317 51° Northeast 380 437 22,200 -816 Descending Washington Center
Sat 11:54:38 AM 40.0244 -77.5211 50° Northeast 393 452 21,300 -912 Descending Washington Center
Sat 11:55:39 AM 40.0947 -77.4081 51° Northeast 397 457 20,300 -984 Descending Washington Center
Sat 11:56:40 AM 40.1619 -77.2953 52° Northeast 396 456 19,300 -1,016 Descending Washington Center
Sat 11:57:43 AM 40.2325 -77.1836 50° Northeast 387 445 18,200 -1,122 Descending Washington Center
Sat 11:58:43 AM 40.2978 -77.0789 51° Northeast 378 435 17,000 -581 Descending Washington Center
Sat 11:59:47 AM 40.3647 -76.9825 48° Northeast 360 414 17,000  Level Washington Center
Sat 12:00:48 PM 40.4314 -76.8919 46° Northeast 348 400 17,000  Level Washington Center
Sat 12:01:52 PM 40.5086 -76.7833 47° Northeast 342 394 17,000 -528 Level Washington Center
Sat 12:02:53 PM 40.5753 -76.6883 47° Northeast 351 404 15,900 -1,033 Descending Washington Center
Sat 12:03:54 PM 40.6431 -76.5947 46° Northeast 354 407 14,900 -960 Descending Washington Center
Sat 12:04:58 PM 40.7089 -76.5006 47° Northeast 353 406 13,900 -919 Descending Washington Center
Sat 12:05:58 PM 40.7742 -76.4097 46° Northeast 345 397 13,000 -927 Descending Washington Center
Sat 12:07:01 PM 40.8383 -76.3167 48° Northeast 345 397 12,000 -1,056 Descending Washington Center
Sat 12:08:03 PM 40.9150 -76.2064 47° Northeast 345 397 10,800 -1,122 Descending Washington Center
Sat 12:09:04 PM 40.9806 -76.1256 43° Northeast 334 384 9,700 -836 Descending Washington Center
Sat 12:10:05 PM 41.0619 -76.0983 14° North 310 357 9,100 -979 Descending Washington Center
Sat 12:11:25 PM 41.1692 -76.0253 27° Northeast 308 354 7,400 -1,141 Descending New York Center
Sat 12:12:27 PM 41.2417 -75.9683 31° Northeast 290 334 6,400 -927 Descending New York Center
Sat 12:13:28 PM 41.3036 -75.9186 31° Northeast 295 339 5,500 -927 Descending New York Center
Sat 12:14:30 PM 41.3569 -75.8558 41° Northeast 274 315 4,500 -780 Descending New York Center
Sat 12:15:31 PM 41.3822 -75.7875 64° Northeast 233 268 3,900 -976 Descending New York Center
Sat 12:16:33 PM 41.3839 -75.7156 88° East 182 209 2,500 -1,073 Descending New York Center
Sat 12:17:34 PM 41.3536 -75.7031 163° South 161 185 1,700 -787 Descending New York Center

Login

Don't have an account? Register now (free) for customized features, flight alerts, and more!